Time;durP1;ratioP1;P1;durP2;ratioP2;P2;SDS_P1;SDS_P2;PMS_P1;PMS_P2;Temp;Humidity;BMP_temperature;BMP_pressure;BME280_temperature;BME280_humidity;BME280_pressure;Samples;Min_cycle;Max_cycle;Signal;HPM_P1;HPM_P2
2022/06/29 00:00:44;;;;;;;1.60;1.50;;;26.50;39.80;;;;;;5059374;28;20453;-87
2022/06/29 00:03:11;;;;;;;2.90;1.67;;;26.50;39.10;;;;;;5058598;28;20450;-88
2022/06/29 00:05:38;;;;;;;1.87;1.60;;;26.60;39.20;;;;;;5064871;28;20444;-89
2022/06/29 00:08:05;;;;;;;1.50;1.40;;;26.50;39.20;;;;;;5060080;28;20473;-87
2022/06/29 00:10:32;;;;;;;1.77;1.57;;;26.50;39.10;;;;;;5060646;28;20444;-88
2022/06/29 00:12:59;;;;;;;3.00;1.60;;;26.50;39.30;;;;;;5030209;28;20849;-88
2022/06/29 00:15:26;;;;;;;1.97;1.87;;;26.50;39.50;;;;;;5030623;28;20805;-88
2022/06/29 00:17:55;;;;;;;1.80;1.70;;;26.40;39.60;;;;;;5058983;28;20770;-87
2022/06/29 00:20:22;;;;;;;2.67;1.70;;;26.40;39.30;;;;;;5057508;28;20467;-88
2022/06/29 00:22:49;;;;;;;2.47;1.47;;;26.40;39.60;;;;;;5047882;28;20492;-88
2022/06/29 00:25:17;;;;;;;1.60;1.50;;;26.40;40.20;;;;;;5065578;28;20975;-87
2022/06/29 00:27:44;;;;;;;1.87;1.53;;;26.30;40.30;;;;;;5056554;28;20466;-88
2022/06/29 00:30:13;;;;;;;2.03;1.70;;;26.30;40.20;;;;;;5047425;28;20467;-87
2022/06/29 00:32:40;;;;;;;1.50;1.40;;;26.30;40.40;;;;;;5044359;28;20487;-88
2022/06/29 00:35:09;;;;;;;1.37;1.27;;;26.30;40.70;;;;;;5058260;28;20445;-89
2022/06/29 00:37:36;;;;;;;5.50;3.80;;;26.30;40.60;;;;;;5063220;28;20437;-88
2022/06/29 00:40:03;;;;;;;2.30;1.77;;;26.20;40.50;;;;;;5069225;28;20976;-88
2022/06/29 00:42:31;;;;;;;2.13;1.93;;;26.10;39.50;;;;;;5047514;28;20506;-87
2022/06/29 00:44:58;;;;;;;3.23;1.57;;;26.10;40.00;;;;;;5064160;28;20445;-87
2022/06/29 00:47:25;;;;;;;1.90;1.80;;;26.10;39.80;;;;;;5057019;28;21227;-87
2022/06/29 00:49:52;;;;;;;2.37;2.00;;;26.10;39.60;;;;;;5039583;28;20816;-89
2022/06/29 00:52:24;;;;;;;2.83;1.63;;;26.10;40.00;;;;;;5076827;28;20484;-90
2022/06/29 00:54:54;;;;;;;1.90;1.80;;;26.10;40.10;;;;;;5025761;28;20483;-89
2022/06/29 00:57:24;;;;;;;2.60;1.90;;;26.10;40.20;;;;;;5059150;28;20456;-88
2022/06/29 00:59:52;;;;;;;1.60;1.50;;;26.00;40.30;;;;;;5058666;28;20519;-88
2022/06/29 01:02:22;;;;;;;2.20;1.60;;;26.00;40.30;;;;;;5049383;28;20465;-91
2022/06/29 01:04:49;;;;;;;2.07;1.63;;;26.00;40.30;;;;;;5077665;28;20453;-87
2022/06/29 01:07:17;;;;;;;1.87;1.70;;;25.90;39.90;;;;;;5065197;28;20470;-87
2022/06/29 01:09:46;;;;;;;1.93;1.83;;;25.50;40.30;;;;;;5066759;28;20460;-89
2022/06/29 01:12:14;;;;;;;2.23;2.03;;;25.20;40.70;;;;;;5049961;28;20461;-88
2022/06/29 01:14:42;;;;;;;2.10;1.90;;;25.30;40.90;;;;;;5061746;28;20543;-87
2022/06/29 01:17:09;;;;;;;4.47;1.80;;;25.30;40.80;;;;;;5059858;28;20442;-87
2022/06/29 01:19:36;;;;;;;2.17;1.80;;;25.50;40.50;;;;;;5045473;28;20433;-86
2022/06/29 01:22:11;;;;;;;2.23;1.80;;;25.50;40.40;;;;;;5061658;28;21011;-87
2022/06/29 01:24:39;;;;;;;1.83;1.73;;;25.50;40.20;;;;;;5058769;28;20447;-87
2022/06/29 01:27:07;;;;;;;1.97;1.87;;;25.60;40.00;;;;;;5080819;28;20523;-88
2022/06/29 01:29:34;;;;;;;3.80;2.27;;;25.60;39.90;;;;;;5058707;28;20456;-87
2022/06/29 01:32:02;;;;;;;1.80;1.70;;;25.60;40.00;;;;;;5063480;28;20441;-86
2022/06/29 01:34:31;;;;;;;2.77;2.10;;;25.60;40.00;;;;;;5060612;28;20449;-88
2022/06/29 01:36:59;;;;;;;2.30;2.10;;;25.60;40.30;;;;;;5044119;28;20806;-87
2022/06/29 01:39:29;;;;;;;2.27;1.90;;;25.60;40.30;;;;;;5065796;28;20456;-87
2022/06/29 01:41:56;;;;;;;3.43;2.00;;;25.60;40.80;;;;;;5056907;28;20449;-87
2022/06/29 01:44:23;;;;;;;2.00;1.90;;;25.60;41.10;;;;;;5061569;28;20449;-89
2022/06/29 01:46:50;;;;;;;2.93;1.90;;;25.60;41.30;;;;;;5058893;28;21153;-87
2022/06/29 01:49:17;;;;;;;2.13;1.93;;;25.60;41.40;;;;;;5061096;28;21197;-89
2022/06/29 01:51:44;;;;;;;2.73;1.80;;;25.50;41.50;;;;;;5050785;28;20448;-87
2022/06/29 01:54:11;;;;;;;1.73;1.60;;;25.50;41.80;;;;;;5076695;28;20465;-87
2022/06/29 01:56:39;;;;;;;2.20;1.80;;;25.60;42.00;;;;;;5065194;28;20437;-88
2022/06/29 01:59:06;;;;;;;2.10;2.00;;;25.50;42.20;;;;;;5061754;28;20449;-88
2022/06/29 02:01:33;;;;;;;2.43;1.93;;;25.50;42.40;;;;;;5052359;28;20514;-87
2022/06/29 02:04:00;;;;;;;2.43;2.07;;;25.50;42.50;;;;;;5059915;28;20484;-89
2022/06/29 02:06:27;;;;;;;2.10;2.00;;;25.50;42.60;;;;;;5028173;28;20495;-87
2022/06/29 02:08:54;;;;;;;2.90;1.90;;;25.50;42.50;;;;;;5062055;28;20478;-88
2022/06/29 02:11:23;;;;;;;3.50;2.17;;;25.40;42.60;;;;;;5059067;28;20457;-87
2022/06/29 02:13:51;;;;;;;2.37;2.17;;;25.40;42.80;;;;;;5074242;28;20466;-89
2022/06/29 02:16:18;;;;;;;5.00;1.90;;;25.40;42.80;;;;;;5067604;28;20456;-89
2022/06/29 02:18:45;;;;;;;2.33;2.13;;;25.40;42.90;;;;;;5064296;28;20440;-87
2022/06/29 02:21:12;;;;;;;2.20;2.00;;;25.40;43.00;;;;;;5074409;28;20456;-87
2022/06/29 02:23:39;;;;;;;2.30;2.10;;;25.40;42.90;;;;;;5067230;28;20900;-88
2022/06/29 02:26:07;;;;;;;3.33;2.30;;;25.30;42.70;;;;;;5060623;28;20445;-88
2022/06/29 02:28:33;;;;;;;2.60;2.10;;;25.30;42.80;;;;;;5066419;28;20727;-88
2022/06/29 02:36:36;;;;;;;3.30;2.40;;;25.20;43.10;;;;;;5047826;28;21154;-88
2022/06/29 02:39:03;;;;;;;3.47;2.30;;;25.20;43.40;;;;;;5058950;28;20450;-87
2022/06/29 02:41:30;;;;;;;2.50;2.07;;;25.20;44.10;;;;;;5062645;28;20471;-87
2022/06/29 02:43:58;;;;;;;2.40;2.20;;;25.20;44.40;;;;;;5047566;28;20472;-88
2022/06/29 02:46:26;;;;;;;2.17;1.97;;;25.20;44.90;;;;;;5062966;28;20463;-88
2022/06/29 02:48:53;;;;;;;2.23;2.03;;;25.20;45.00;;;;;;5058555;28;20527;-88
2022/06/29 02:51:20;;;;;;;2.80;2.00;;;25.20;45.00;;;;;;5039890;28;20449;-87
2022/06/29 02:53:47;;;;;;;2.80;2.60;;;25.30;45.70;;;;;;5059384;28;20995;-86
2022/06/29 02:56:14;;;;;;;5.80;2.80;;;25.30;45.00;;;;;;5057475;28;20460;-87
2022/06/29 02:58:41;;;;;;;2.30;2.10;;;25.30;44.80;;;;;;5060031;28;20463;-87
2022/06/29 03:01:07;;;;;;;4.47;3.03;;;25.30;44.20;;;;;;5046951;28;20471;-88
2022/06/29 03:03:36;;;;;;;2.80;2.60;;;25.30;44.00;;;;;;5044877;28;20973;-88
2022/06/29 03:06:03;;;;;;;2.67;2.47;;;25.30;44.10;;;;;;5061219;28;20456;-89
2022/06/29 03:08:30;;;;;;;2.70;2.40;;;25.30;43.60;;;;;;5058026;28;20480;-87
2022/06/29 03:10:57;;;;;;;2.67;2.47;;;25.30;43.50;;;;;;5044994;28;20854;-87
2022/06/29 03:13:24;;;;;;;4.83;2.63;;;25.30;43.70;;;;;;5061346;28;20481;-87
2022/06/29 03:15:51;;;;;;;3.97;2.63;;;25.30;43.70;;;;;;5065449;28;20498;-87
2022/06/29 03:18:18;;;;;;;2.93;2.70;;;25.30;43.50;;;;;;5031425;28;20433;-89
2022/06/29 03:20:46;;;;;;;3.90;2.90;;;25.30;43.60;;;;;;5051121;28;20524;-87
2022/06/29 03:23:13;;;;;;;5.00;2.83;;;25.30;44.00;;;;;;5059486;28;20819;-87
2022/06/29 03:25:40;;;;;;;3.00;2.80;;;25.30;43.40;;;;;;5065222;28;20452;-86
2022/06/29 03:28:08;;;;;;;3.57;3.27;;;25.30;43.50;;;;;;5041529;28;20460;-90
2022/06/29 03:30:35;;;;;;;3.10;2.90;;;25.30;43.30;;;;;;5044664;28;20806;-87
2022/06/29 03:33:02;;;;;;;2.77;2.57;;;25.30;43.50;;;;;;5060513;28;20479;-87
2022/06/29 03:35:29;;;;;;;4.10;2.87;;;25.30;43.70;;;;;;5075312;28;20940;-88
2022/06/29 03:37:57;;;;;;;3.40;3.10;;;25.30;43.90;;;;;;5057049;28;20843;-87
2022/06/29 03:40:24;;;;;;;3.40;3.10;;;25.30;43.70;;;;;;5062378;28;21217;-88
2022/06/29 03:42:51;;;;;;;3.43;2.83;;;25.30;43.80;;;;;;5059054;28;20473;-88
2022/06/29 03:45:19;;;;;;;3.97;2.67;;;25.30;43.80;;;;;;5064484;28;20462;-87
2022/06/29 03:47:47;;;;;;;3.33;3.13;;;25.30;43.90;;;;;;5066624;28;20947;-88
2022/06/29 03:50:14;;;;;;;3.67;3.33;;;25.30;43.40;;;;;;5065478;28;20996;-86
2022/06/29 03:52:41;;;;;;;3.50;3.20;;;25.40;43.40;;;;;;5050709;28;20468;-88
2022/06/29 03:55:10;;;;;;;3.47;3.20;;;25.40;43.60;;;;;;5059262;28;20444;-87
2022/06/29 03:57:37;;;;;;;3.53;3.23;;;25.30;43.20;;;;;;5076583;28;20700;-90
2022/06/29 04:00:05;;;;;;;4.50;3.50;;;25.30;42.90;;;;;;5055716;28;20449;-88
2022/06/29 04:02:40;;;;;;;6.30;3.70;;;25.30;42.50;;;;;;5049995;28;20474;-87
2022/06/29 04:05:07;;;;;;;3.63;3.33;;;25.30;43.10;;;;;;5080416;28;20449;-88
2022/06/29 04:07:35;;;;;;;3.27;3.07;;;25.30;42.90;;;;;;5047933;28;20544;-88
2022/06/29 04:10:02;;;;;;;3.70;3.40;;;25.30;42.90;;;;;;5062372;28;20540;-88
2022/06/29 04:12:34;;;;;;;5.40;3.67;;;25.30;43.20;;;;;;5049807;28;21007;-87
2022/06/29 04:15:01;;;;;;;3.47;3.27;;;25.30;44.20;;;;;;5061581;28;20452;-87
2022/06/29 04:17:29;;;;;;;3.20;3.00;;;25.30;43.70;;;;;;5067254;28;20457;-87
2022/06/29 04:19:55;;;;;;;3.57;3.27;;;25.40;44.10;;;;;;5063982;28;20519;-87
2022/06/29 04:22:23;;;;;;;4.10;3.80;;;25.40;44.10;;;;;;5065452;28;20468;-87
2022/06/29 04:24:50;;;;;;;3.73;3.43;;;25.50;44.30;;;;;;5050666;28;20537;-88
2022/06/29 04:27:18;;;;;;;3.80;3.50;;;25.60;44.10;;;;;;5062582;28;20441;-88
2022/06/29 04:29:47;;;;;;;4.07;3.67;;;25.70;43.80;;;;;;5063139;28;20472;-87
2022/06/29 04:32:14;;;;;;;4.00;3.70;;;25.70;44.00;;;;;;5057355;28;20446;-88
2022/06/29 04:34:41;;;;;;;4.07;3.60;;;25.70;43.60;;;;;;5061921;28;20457;-88
2022/06/29 04:37:08;;;;;;;4.40;4.10;;;25.80;42.90;;;;;;5058911;28;20457;-87
2022/06/29 04:39:36;;;;;;;5.37;3.93;;;25.70;41.70;;;;;;5059179;28;20529;-89
2022/06/29 04:42:04;;;;;;;4.33;4.03;;;25.60;41.60;;;;;;5044267;28;21001;-87
2022/06/29 04:44:31;;;;;;;4.63;4.27;;;25.60;42.70;;;;;;5047195;28;20545;-88
2022/06/29 04:46:59;;;;;;;5.53;4.47;;;25.70;43.30;;;;;;5059743;28;20442;-89
2022/06/29 04:49:26;;;;;;;4.77;4.37;;;25.80;43.00;;;;;;5043805;28;20610;-88
2022/06/29 04:51:55;;;;;;;3.93;3.63;;;25.90;42.80;;;;;;5062949;28;20956;-89
2022/06/29 04:54:22;;;;;;;4.17;3.77;;;25.80;43.30;;;;;;5059701;28;20492;-88
2022/06/29 04:56:49;;;;;;;3.97;3.67;;;25.80;43.10;;;;;;5060480;28;20449;-89
2022/06/29 04:59:18;;;;;;;7.87;4.30;;;25.80;43.10;;;;;;5067536;28;20464;-88
2022/06/29 05:01:50;;;;;;;4.33;3.90;;;25.90;43.40;;;;;;5061008;28;20447;-88
2022/06/29 05:04:18;;;;;;;5.27;3.83;;;25.90;42.70;;;;;;5038168;28;20523;-88
2022/06/29 05:06:45;;;;;;;4.63;4.23;;;26.00;42.90;;;;;;5066942;28;20544;-87
2022/06/29 05:09:12;;;;;;;4.17;3.77;;;26.10;43.00;;;;;;5044760;28;21142;-88
2022/06/29 05:11:39;;;;;;;6.13;5.53;;;26.10;42.60;;;;;;5045222;28;20457;-87
2022/06/29 05:14:07;;;;;;;4.70;4.30;;;26.10;41.60;;;;;;5055199;28;20457;-89
2022/06/29 05:16:34;;;;;;;13.13;4.27;;;26.00;41.80;;;;;;5067534;28;21346;-87
2022/06/29 05:19:01;;;;;;;5.60;5.10;;;26.10;43.00;;;;;;5049385;28;20477;-86
2022/06/29 05:21:30;;;;;;;4.27;3.97;;;26.20;42.60;;;;;;5044173;28;20448;-87
2022/06/29 05:23:57;;;;;;;5.30;4.80;;;26.20;41.60;;;;;;5048105;28;20642;-89
2022/06/29 05:26:24;;;;;;;12.40;4.23;;;26.20;41.60;;;;;;5032381;28;20444;-87
2022/06/29 05:28:51;;;;;;;4.80;4.40;;;26.20;41.50;;;;;;5049416;28;20568;-86
2022/06/29 05:31:19;;;;;;;8.50;5.00;;;26.20;41.70;;;;;;5061846;28;20454;-88
2022/06/29 05:33:46;;;;;;;7.03;4.70;;;26.30;42.40;;;;;;5046240;28;20485;-88
2022/06/29 05:36:13;;;;;;;4.67;4.27;;;26.40;42.50;;;;;;5048139;28;20449;-88
2022/06/29 05:38:41;;;;;;;5.47;4.97;;;26.50;42.90;;;;;;5057604;28;20959;-90
2022/06/29 05:41:08;;;;;;;8.87;5.07;;;26.60;42.10;;;;;;5049934;28;20951;-87
2022/06/29 05:43:35;;;;;;;4.80;4.40;;;26.60;41.70;;;;;;5049882;28;20460;-88
2022/06/29 05:46:02;;;;;;;5.37;4.80;;;26.60;41.80;;;;;;5058651;28;20527;-88
2022/06/29 05:48:29;;;;;;;7.00;4.97;;;26.50;42.10;;;;;;5043670;28;20908;-88
2022/06/29 05:50:56;;;;;;;8.03;5.50;;;26.60;42.00;;;;;;5053961;28;20450;-87
2022/06/29 05:53:23;;;;;;;8.63;5.57;;;26.70;42.40;;;;;;5048486;28;20563;-88
2022/06/29 05:55:51;;;;;;;6.93;5.37;;;26.90;41.90;;;;;;5068870;28;20541;-91
2022/06/29 05:58:20;;;;;;;6.30;5.30;;;26.80;41.70;;;;;;5036469;28;20914;-89
2022/06/29 06:00:47;;;;;;;5.73;5.23;;;26.90;42.60;;;;;;5038484;28;20446;-89
2022/06/29 06:03:14;;;;;;;8.37;6.53;;;27.00;43.50;;;;;;5053678;28;20465;-88
2022/06/29 06:05:42;;;;;;;9.27;6.60;;;27.00;42.60;;;;;;5052759;28;20452;-89
2022/06/29 06:08:09;;;;;;;7.50;6.90;;;27.00;43.10;;;;;;5054253;28;20461;-89
2022/06/29 06:10:36;;;;;;;7.23;6.60;;;27.00;43.30;;;;;;5069028;28;20460;-90
2022/06/29 06:13:06;;;;;;;6.07;5.57;;;27.00;42.80;;;;;;5070189;28;20567;-89
2022/06/29 06:15:33;;;;;;;7.30;6.30;;;27.10;43.40;;;;;;5024955;28;21005;-88
2022/06/29 06:18:01;;;;;;;7.33;6.63;;;27.00;43.00;;;;;;5053644;28;20457;-89
2022/06/29 06:20:28;;;;;;;7.70;7.00;;;27.10;43.50;;;;;;5037876;28;21023;-87
2022/06/29 06:22:55;;;;;;;8.47;6.50;;;27.00;43.10;;;;;;5041602;28;20491;-92
2022/06/29 06:25:22;;;;;;;6.77;6.17;;;27.00;43.00;;;;;;5055083;28;20459;-88
2022/06/29 06:27:49;;;;;;;7.40;6.70;;;27.40;43.70;;;;;;5027480;28;20451;-90
2022/06/29 06:30:17;;;;;;;8.67;6.73;;;27.30;43.50;;;;;;5065916;28;20484;-89
2022/06/29 06:32:44;;;;;;;7.10;6.50;;;27.30;43.00;;;;;;5052417;28;20469;-87
2022/06/29 06:35:11;;;;;;;8.20;7.40;;;27.50;43.90;;;;;;5034309;28;20437;-91
2022/06/29 06:37:39;;;;;;;7.57;6.70;;;27.70;43.10;;;;;;5050600;28;20799;-88
2022/06/29 06:42:52;;;;;;;8.10;7.30;;;27.90;42.20;;;;;;5068050;28;20465;-89
2022/06/29 06:45:21;;;;;;;8.67;7.40;;;27.70;42.50;;;;;;5038618;28;20616;-87
2022/06/29 06:47:48;;;;;;;7.63;6.93;;;27.90;43.10;;;;;;5048872;28;20458;-89
2022/06/29 06:50:15;;;;;;;8.63;7.73;;;27.90;42.90;;;;;;5048398;28;21173;-87
2022/06/29 06:52:46;;;;;;;9.23;7.67;;;28.00;42.90;;;;;;5018846;28;20738;-89
2022/06/29 06:55:14;;;;;;;9.90;7.37;;;27.90;42.90;;;;;;5033503;28;20464;-89
2022/06/29 06:57:41;;;;;;;8.10;7.40;;;28.00;43.40;;;;;;5047681;28;20506;-89
2022/06/29 07:00:09;;;;;;;8.57;7.63;;;28.10;43.40;;;;;;5050781;28;20956;-89
2022/06/29 07:02:38;;;;;;;8.43;7.73;;;28.10;43.20;;;;;;5047649;28;20484;-87
2022/06/29 07:05:06;;;;;;;8.70;7.90;;;27.80;44.10;;;;;;5048656;28;20560;-89
2022/06/29 07:07:33;;;;;;;9.77;8.77;;;27.90;44.60;;;;;;5060194;28;20452;-88
2022/06/29 07:10:00;;;;;;;12.70;8.20;;;28.30;44.60;;;;;;5030501;28;20476;-89
2022/06/29 07:12:27;;;;;;;8.53;7.73;;;28.50;43.70;;;;;;5056303;28;20476;-90
2022/06/29 07:14:55;;;;;;;10.43;8.40;;;28.60;43.00;;;;;;5041270;28;20439;-89
2022/06/29 07:17:22;;;;;;;8.10;7.40;;;28.80;43.10;;;;;;5066968;28;20445;-88
2022/06/29 07:19:51;;;;;;;9.07;8.23;;;28.60;42.80;;;;;;5040634;28;21097;-88
2022/06/29 07:22:18;;;;;;;8.73;8.03;;;28.60;43.00;;;;;;5033764;28;20449;-89
2022/06/29 07:24:45;;;;;;;8.60;7.80;;;28.60;43.00;;;;;;5057115;28;20484;-88
2022/06/29 07:27:12;;;;;;;7.90;7.20;;;28.60;43.30;;;;;;5049686;28;20453;-88
2022/06/29 07:29:40;;;;;;;8.07;7.37;;;28.60;43.40;;;;;;5054034;28;20471;-87
2022/06/29 07:32:07;;;;;;;9.27;7.60;;;28.50;43.40;;;;;;5039976;28;20449;-88
2022/06/29 07:34:34;;;;;;;9.10;8.20;;;28.60;43.90;;;;;;5055405;28;21112;-87
2022/06/29 07:37:03;;;;;;;10.37;9.47;;;28.80;43.50;;;;;;5053552;28;20465;-85
2022/06/29 07:39:30;;;;;;;9.07;8.27;;;29.00;43.20;;;;;;5053967;28;20441;-87
2022/06/29 07:41:57;;;;;;;9.40;8.50;;;29.20;43.00;;;;;;5054709;28;20877;-88
2022/06/29 07:44:24;;;;;;;9.50;8.70;;;29.00;43.00;;;;;;5050983;28;20469;-87
2022/06/29 07:46:51;;;;;;;8.60;7.47;;;29.00;43.20;;;;;;5054967;28;20456;-87
2022/06/29 07:49:18;;;;;;;10.57;8.40;;;29.00;43.20;;;;;;5054371;28;20480;-90
2022/06/29 07:51:45;;;;;;;12.77;9.37;;;29.20;43.10;;;;;;5048271;28;20457;-87
2022/06/29 07:54:13;;;;;;;9.00;8.13;;;29.20;42.60;;;;;;5052773;28;21002;-87
2022/06/29 07:56:40;;;;;;;8.37;7.53;;;29.20;43.20;;;;;;5052548;28;20454;-88
2022/06/29 07:59:07;;;;;;;9.43;8.53;;;29.30;42.90;;;;;;5051545;28;20453;-89
2022/06/29 08:01:34;;;;;;;9.03;8.13;;;29.20;43.20;;;;;;5050405;28;20472;-89
2022/06/29 08:04:01;;;;;;;11.37;9.07;;;29.20;43.40;;;;;;5052501;28;20476;-86
2022/06/29 08:06:28;;;;;;;15.83;9.20;;;29.20;43.40;;;;;;5053397;28;20449;-89
2022/06/29 08:08:55;;;;;;;11.43;8.73;;;29.30;43.10;;;;;;5064313;28;20456;-89
2022/06/29 08:11:24;;;;;;;8.63;7.83;;;29.50;43.20;;;;;;5051233;28;20473;-87
2022/06/29 08:13:50;;;;;;;9.20;8.33;;;29.60;42.80;;;;;;5049487;28;20854;-90
2022/06/29 08:16:17;;;;;;;8.87;8.00;;;29.60;42.20;;;;;;5050808;28;20489;-87
2022/06/29 08:18:44;;;;;;;8.43;7.00;;;29.60;43.30;;;;;;5048009;28;20449;-87
2022/06/29 08:21:11;;;;;;;8.80;8.00;;;29.80;42.70;;;;;;5035051;28;20449;-87
2022/06/29 08:23:38;;;;;;;9.63;8.63;;;29.60;43.00;;;;;;5067507;28;21011;-87
2022/06/29 08:26:05;;;;;;;9.10;8.20;;;29.40;43.30;;;;;;5050945;28;20462;-89
2022/06/29 08:28:34;;;;;;;10.30;8.60;;;29.40;43.80;;;;;;5051196;28;21162;-87
2022/06/29 08:31:01;;;;;;;8.63;7.80;;;29.30;44.00;;;;;;5050165;28;21063;-88
2022/06/29 08:33:28;;;;;;;10.20;8.80;;;29.50;44.30;;;;;;5043117;28;20476;-90
2022/06/29 08:35:55;;;;;;;9.27;8.37;;;29.50;44.10;;;;;;5050680;28;20472;-89
2022/06/29 08:38:21;;;;;;;9.60;8.70;;;29.60;43.70;;;;;;5056154;28;20602;-89
2022/06/29 08:40:49;;;;;;;8.97;8.07;;;29.50;43.30;;;;;;5049838;28;20444;-88
2022/06/29 08:43:18;;;;;;;9.63;8.63;;;29.50;43.90;;;;;;5047680;28;20472;-87
2022/06/29 08:45:48;;;;;;;10.00;9.10;;;29.70;43.60;;;;;;5033467;28;21144;-88
2022/06/29 08:48:16;;;;;;;10.20;8.53;;;29.70;43.30;;;;;;5056665;28;20453;-88
2022/06/29 08:50:47;;;;;;;9.33;8.43;;;29.70;43.30;;;;;;5055884;28;20498;-89
2022/06/29 08:53:16;;;;;;;8.50;7.70;;;29.50;43.40;;;;;;5051867;28;20587;-88
2022/06/29 08:55:45;;;;;;;9.27;8.43;;;29.40;44.00;;;;;;5049524;28;20487;-90
2022/06/29 08:58:15;;;;;;;8.83;7.93;;;29.40;44.10;;;;;;5050951;28;20462;-90
2022/06/29 09:00:42;;;;;;;8.97;8.07;;;29.50;43.70;;;;;;5052926;28;20448;-90
2022/06/29 09:03:11;;;;;;;11.10;8.50;;;29.90;43.50;;;;;;5036604;28;20473;-87
2022/06/29 09:05:38;;;;;;;9.37;8.47;;;30.10;42.90;;;;;;5053477;28;20495;-89
2022/06/29 09:08:05;;;;;;;9.17;8.37;;;30.10;43.50;;;;;;5070712;28;20528;-87
2022/06/29 09:10:33;;;;;;;9.90;9.00;;;30.30;42.60;;;;;;5054453;28;20976;-87
2022/06/29 09:13:05;;;;;;;9.70;8.40;;;30.70;42.60;;;;;;5056318;28;20461;-88
2022/06/29 09:15:34;;;;;;;9.57;8.73;;;31.00;41.10;;;;;;5035937;28;20514;-88
2022/06/29 09:18:01;;;;;;;9.27;8.20;;;31.20;40.60;;;;;;5054213;28;20462;-88
2022/06/29 09:20:39;;;;;;;8.63;7.83;;;31.40;40.80;;;;;;5054493;28;20528;-88
2022/06/29 09:23:09;;;;;;;9.70;8.80;;;31.70;41.00;;;;;;5037939;28;20976;-89
2022/06/29 09:25:39;;;;;;;9.83;8.83;;;31.80;39.70;;;;;;5055686;28;20445;-87
2022/06/29 09:28:19;;;;;;;8.93;8.13;;;31.60;39.70;;;;;;5056665;28;20449;-87
2022/06/29 09:30:46;;;;;;;11.20;8.73;;;31.20;40.90;;;;;;5055589;28;20556;-89
2022/06/29 09:33:13;;;;;;;9.50;8.33;;;31.30;40.70;;;;;;5054429;28;20469;-89
2022/06/29 09:35:42;;;;;;;11.20;8.30;;;31.50;40.90;;;;;;5026299;28;20456;-88
2022/06/29 09:38:20;;;;;;;9.60;8.70;;;31.90;40.20;;;;;;5058802;28;20467;-88
2022/06/29 09:41:05;;;;;;;9.03;8.23;;;31.50;39.90;;;;;;5053736;28;21126;-87
2022/06/29 09:43:34;;;;;;;9.60;8.70;;;31.40;41.00;;;;;;5057371;28;20480;-92
2022/06/29 09:46:01;;;;;;;9.13;8.03;;;31.50;41.20;;;;;;5054139;28;21131;-86
2022/06/29 09:48:29;;;;;;;9.40;8.50;;;31.50;40.00;;;;;;5056944;28;20484;-90
2022/06/29 09:50:59;;;;;;;8.83;8.03;;;31.30;41.90;;;;;;5053006;28;20473;-88
2022/06/29 09:53:31;;;;;;;9.40;8.50;;;31.70;41.20;;;;;;5054780;28;20475;-90
2022/06/29 09:56:03;;;;;;;8.93;8.00;;;32.10;40.90;;;;;;5054357;28;20448;-90
2022/06/29 09:58:37;;;;;;;9.33;8.27;;;32.40;39.60;;;;;;5044638;28;20453;-87
2022/06/29 10:03:56;;;;;;;7.87;7.17;;;33.20;39.20;;;;;;5055156;28;20458;-87
2022/06/29 10:06:25;;;;;;;8.97;8.07;;;33.20;37.40;;;;;;5055276;28;20502;-87
2022/06/29 10:08:52;;;;;;;7.27;6.70;;;33.00;38.10;;;;;;5052849;28;20442;-87
2022/06/29 10:14:32;;;;;;;10.93;8.27;;;33.00;38.10;;;;;;5068669;28;20496;-89
2022/06/29 10:17:25;;;;;;;8.43;7.63;;;33.00;38.00;;;;;;5039768;28;20445;-89
2022/06/29 10:20:02;;;;;;;8.10;7.40;;;33.00;38.00;;;;;;5051574;28;20461;-88
2022/06/29 10:22:30;;;;;;;7.87;7.20;;;33.20;38.00;;;;;;5054922;28;20476;-89
2022/06/29 10:25:04;;;;;;;10.93;7.60;;;33.50;37.50;;;;;;5052020;28;21066;-90
2022/06/29 10:27:33;;;;;;;7.20;6.60;;;33.60;37.80;;;;;;5057643;28;20468;-88
2022/06/29 10:30:23;;;;;;;8.03;7.23;;;33.90;36.60;;;;;;5050284;28;20473;-88
2022/06/29 10:32:50;;;;;;;8.20;7.40;;;33.90;36.50;;;;;;5052367;28;20466;-91
2022/06/29 10:35:18;;;;;;;8.10;7.30;;;34.20;36.30;;;;;;5040393;28;20449;-88
2022/06/29 10:37:51;;;;;;;7.40;6.70;;;34.40;35.80;;;;;;5052315;28;20502;-89
2022/06/29 10:40:20;;;;;;;8.20;6.90;;;34.30;35.40;;;;;;5051669;28;20445;-88
2022/06/29 10:45:37;;;;;;;8.13;7.33;;;34.20;35.90;;;;;;5048869;28;20587;-87
2022/06/29 10:48:20;;;;;;;7.33;6.77;;;34.20;36.10;;;;;;5039728;28;20456;-90
2022/06/29 10:50:47;;;;;;;7.03;6.40;;;34.20;36.20;;;;;;5052207;28;20472;-91
2022/06/29 10:53:18;;;;;;;8.23;7.43;;;33.90;36.20;;;;;;5062871;28;21084;-88
2022/06/29 10:55:47;;;;;;;9.00;8.30;;;33.50;36.40;;;;;;5023810;28;20457;-89
2022/06/29 10:58:15;;;;;;;8.80;7.90;;;33.50;37.50;;;;;;5057344;28;20944;-92
2022/06/29 11:00:43;;;;;;;8.47;7.67;;;33.20;37.50;;;;;;5054144;28;20437;-87
2022/06/29 11:03:15;;;;;;;8.30;6.93;;;33.40;37.80;;;;;;5036988;28;20483;-89
2022/06/29 11:14:00;;;;;;;7.40;6.70;;;33.60;38.50;;;;;;5062061;28;20466;-88
2022/06/29 11:16:35;;;;;;;9.60;7.03;;;34.20;36.60;;;;;;5039739;28;20555;-87
2022/06/29 11:19:03;;;;;;;8.23;6.63;;;34.10;36.40;;;;;;5049947;28;20481;-88
2022/06/29 11:21:30;;;;;;;7.60;7.00;;;33.80;36.90;;;;;;5052775;28;20441;-90
2022/06/29 11:24:03;;;;;;;7.67;6.97;;;33.50;37.60;;;;;;5057458;28;20484;-91
2022/06/29 11:26:31;;;;;;;7.10;6.23;;;33.50;37.70;;;;;;5059304;28;20914;-87
2022/06/29 11:28:59;;;;;;;7.17;6.40;;;33.80;37.30;;;;;;5041205;28;20960;-88
2022/06/29 11:31:27;;;;;;;7.90;7.10;;;34.00;36.90;;;;;;5054268;28;20481;-89
2022/06/29 11:33:55;;;;;;;7.83;6.40;;;34.10;36.50;;;;;;5053962;28;20479;-89
2022/06/29 11:36:25;;;;;;;8.17;6.57;;;34.20;36.00;;;;;;5050916;28;20448;-87
2022/06/29 11:38:54;;;;;;;7.03;6.43;;;34.30;35.90;;;;;;5052586;28;20450;-87
2022/06/29 11:41:25;;;;;;;6.90;6.40;;;34.30;36.30;;;;;;5058653;28;20452;-86
2022/06/29 11:44:00;;;;;;;6.53;6.03;;;33.90;35.60;;;;;;5042247;28;20474;-87
2022/06/29 11:46:28;;;;;;;9.17;7.13;;;33.60;36.50;;;;;;5053859;28;20448;-87
2022/06/29 11:51:55;;;;;;;6.93;6.27;;;33.50;37.50;;;;;;5050834;28;20462;-90
2022/06/29 11:54:35;;;;;;;7.97;6.60;;;33.50;37.40;;;;;;5049472;28;20551;-88
2022/06/29 11:57:08;;;;;;;6.00;5.40;;;33.50;37.20;;;;;;5068716;28;20445;-89
2022/06/29 11:59:35;;;;;;;6.67;6.17;;;33.40;36.80;;;;;;5039872;28;20452;-87
2022/06/29 12:02:02;;;;;;;6.47;5.87;;;33.30;37.30;;;;;;5050567;28;20468;-87
2022/06/29 12:04:32;;;;;;;8.17;5.80;;;33.10;36.90;;;;;;5051588;28;20835;-88
2022/06/29 12:07:04;;;;;;;7.47;6.53;;;33.10;37.00;;;;;;5050649;28;21433;-89
2022/06/29 12:09:31;;;;;;;9.47;6.10;;;33.10;37.30;;;;;;5041458;28;21117;-89
2022/06/29 12:11:58;;;;;;;6.27;5.70;;;33.20;37.30;;;;;;5052449;28;20476;-87
2022/06/29 12:14:27;;;;;;;6.43;5.83;;;33.50;36.50;;;;;;5045963;28;20616;-89
2022/06/29 12:16:54;;;;;;;6.70;6.10;;;33.70;36.40;;;;;;5051095;28;20456;-90
2022/06/29 12:19:21;;;;;;;5.40;4.97;;;33.70;35.90;;;;;;5045433;28;21149;-87
2022/06/29 12:21:48;;;;;;;7.00;5.67;;;33.70;36.00;;;;;;5047619;28;20529;-90
2022/06/29 12:24:16;;;;;;;6.20;5.60;;;33.80;36.90;;;;;;5024847;28;20458;-86
2022/06/29 12:26:43;;;;;;;6.33;5.77;;;33.80;36.90;;;;;;5036880;28;20444;-87
2022/06/29 12:29:13;;;;;;;6.30;5.80;;;33.70;36.20;;;;;;5052055;28;20499;-89
2022/06/29 12:31:42;;;;;;;8.20;6.40;;;33.60;36.30;;;;;;5053135;28;20472;-91
2022/06/29 12:34:09;;;;;;;5.97;5.37;;;33.60;36.40;;;;;;5054037;28;20456;-91
2022/06/29 12:36:37;;;;;;;7.77;6.90;;;33.30;36.70;;;;;;5037461;28;20818;-88
2022/06/29 12:39:04;;;;;;;7.33;6.50;;;33.50;37.10;;;;;;5046274;28;20452;-91
2022/06/29 12:41:31;;;;;;;6.80;6.20;;;33.50;36.50;;;;;;5044757;28;20444;-90
2022/06/29 12:43:59;;;;;;;6.30;5.63;;;33.50;36.70;;;;;;5031807;28;20505;-91
2022/06/29 12:46:27;;;;;;;6.33;5.70;;;33.40;36.50;;;;;;5047211;28;20502;-90
2022/06/29 12:48:56;;;;;;;5.73;5.00;;;33.40;36.30;;;;;;5036165;28;20972;-90
2022/06/29 12:51:23;;;;;;;6.10;5.50;;;33.50;36.50;;;;;;5048754;28;20469;-90
2022/06/29 12:53:50;;;;;;;6.60;5.97;;;33.50;36.20;;;;;;5044383;28;21077;-88
2022/06/29 12:56:18;;;;;;;5.83;5.33;;;33.50;37.10;;;;;;5064224;28;20572;-90
2022/06/29 12:58:44;;;;;;;7.20;6.50;;;33.50;35.80;;;;;;5039131;28;20539;-90
2022/06/29 13:01:12;;;;;;;7.80;5.80;;;33.60;37.00;;;;;;5049854;28;20491;-88
2022/06/29 13:03:39;;;;;;;6.13;5.60;;;33.80;36.70;;;;;;5051374;28;20529;-90
2022/06/29 13:06:07;;;;;;;10.53;5.60;;;33.80;36.20;;;;;;5049266;28;20448;-88
2022/06/29 13:08:34;;;;;;;6.43;5.83;;;33.70;36.30;;;;;;5049048;28;20827;-87
2022/06/29 13:11:01;;;;;;;7.40;6.60;;;33.90;37.20;;;;;;5037262;28;20500;-89
2022/06/29 13:13:28;;;;;;;8.60;6.13;;;33.80;36.60;;;;;;5048633;28;20473;-87
2022/06/29 13:15:56;;;;;;;6.97;6.27;;;33.70;36.70;;;;;;5048673;28;20954;-90
2022/06/29 13:18:23;;;;;;;7.60;6.20;;;33.70;36.50;;;;;;5033089;28;20444;-88